Time;durP1;ratioP1;P1;durP2;ratioP2;P2;SDS_P1;SDS_P2;PMS_P1;PMS_P2;Temp;Humidity;BMP_temperature;BMP_pressure;BME280_temperature;BME280_humidity;BME280_pressure;Samples;Min_cycle;Max_cycle;Signal;HPM_P1;HPM_P2
2023/11/09 00:01:17;;;;;;;7.80;5.60;;;;;;;7.54;87.94;98632.80;105620;1259;61170;-26
2023/11/09 00:03:44;;;;;;;7.50;5.30;;;;;;;7.18;90.22;98632.52;105748;1257;74362;-26
2023/11/09 00:06:11;;;;;;;7.60;5.40;;;;;;;6.98;91.65;98635.37;105637;1257;74705;-27
2023/11/09 00:08:43;;;;;;;8.30;5.10;;;;;;;6.83;92.95;98637.80;105778;1257;73230;-26
2023/11/09 00:11:10;;;;;;;9.10;5.90;;;;;;;7.20;91.13;98636.67;105753;1254;61217;-26
2023/11/09 00:13:37;;;;;;;8.10;5.60;;;;;;;7.17;90.50;98637.27;105511;1253;61122;-26
2023/11/09 00:16:04;;;;;;;9.50;5.70;;;;;;;7.15;89.91;98636.02;105613;1254;73713;-26
2023/11/09 00:18:31;;;;;;;10.30;6.70;;;;;;;6.82;91.34;98635.08;105610;1259;74313;-27
2023/11/09 00:20:59;;;;;;;9.70;5.80;;;;;;;6.60;92.51;98642.86;105546;1254;72157;-26
2023/11/09 00:23:27;;;;;;;10.20;6.10;;;;;;;6.52;93.44;98642.94;105505;1254;61924;-26
2023/11/09 00:25:57;;;;;;;12.20;6.00;;;;;;;6.91;91.33;98645.48;105547;1254;61163;-26
2023/11/09 00:28:24;;;;;;;8.60;6.10;;;;;;;6.99;89.91;98644.40;105561;1254;73614;-26
2023/11/09 00:30:51;;;;;;;9.80;6.10;;;;;;;6.76;90.62;98645.91;105684;1261;74244;-26
2023/11/09 00:33:18;;;;;;;11.70;7.30;;;;;;;6.58;91.82;98647.34;105721;1254;72649;-27
2023/11/09 00:35:47;;;;;;;9.40;5.90;;;;;;;6.37;93.52;98651.77;105576;1259;61701;-26
2023/11/09 00:38:16;;;;;;;7.40;5.30;;;;;;;6.69;92.85;98650.88;105603;1258;61090;-26
2023/11/09 00:40:44;;;;;;;8.40;5.70;;;;;;;7.05;90.65;98652.98;105698;1254;73836;-26
2023/11/09 00:43:11;;;;;;;12.00;7.30;;;;;;;7.06;90.10;98654.61;105796;1259;74316;-27
2023/11/09 00:45:39;;;;;;;11.50;6.60;;;;;;;6.90;90.99;98653.02;105578;1254;72617;-26
2023/11/09 00:48:05;;;;;;;12.30;6.10;;;;;;;6.62;92.44;98648.13;105588;1254;61272;-27
2023/11/09 00:50:33;;;;;;;9.00;5.50;;;;;;;6.52;93.59;98650.88;105650;1258;61071;-27
2023/11/09 00:53:00;;;;;;;6.30;4.80;;;;;;;6.90;92.33;98647.29;105637;1254;73866;-26
2023/11/09 00:55:27;;;;;;;12.40;6.50;;;;;;;7.28;89.80;98642.62;105736;1254;74316;-26
2023/11/09 00:57:54;;;;;;;10.60;7.00;;;;;;;7.20;89.28;98646.33;105838;1254;72293;-26
2023/11/09 01:00:21;;;;;;;9.60;5.90;;;;;;;7.02;90.24;98648.72;105637;1254;61099;-27
2023/11/09 01:02:49;;;;;;;9.00;6.60;;;;;;;6.76;90.88;98649.01;105829;1259;61089;-26
2023/11/09 01:05:16;;;;;;;11.30;5.30;;;;;;;6.54;91.60;98652.23;105827;1254;73880;-26
2023/11/09 01:07:44;;;;;;;11.50;6.20;;;;;;;6.83;90.35;98652.80;105783;1254;74347;-26
2023/11/09 01:10:11;;;;;;;7.50;5.80;;;;;;;7.08;87.89;98651.04;105696;1254;72129;-26
2023/11/09 01:12:37;;;;;;;11.60;6.00;;;;;;;6.99;87.30;98648.89;105598;1259;61071;-26
2023/11/09 01:15:05;;;;;;;9.80;5.90;;;;;;;6.72;88.12;98654.12;105659;1259;61111;-27
2023/11/09 01:17:38;;;;;;;9.70;5.90;;;;;;;6.41;89.20;98658.34;105667;1254;73611;-26
2023/11/09 01:20:06;;;;;;;9.40;5.90;;;;;;;6.15;90.02;98665.88;105687;1254;73329;-26
2023/11/09 01:22:34;;;;;;;10.70;5.60;;;;;;;6.39;89.69;98669.73;105680;1259;71383;-27
2023/11/09 01:25:01;;;;;;;8.60;6.00;;;;;;;6.68;87.56;98669.73;105847;1254;61082;-27
2023/11/09 01:27:28;;;;;;;8.90;5.60;;;;;;;6.58;86.99;98670.42;105881;1259;61116;-27
2023/11/09 01:29:55;;;;;;;10.10;6.60;;;;;;;6.30;87.63;98669.67;105844;1254;73857;-26
2023/11/09 01:32:22;;;;;;;9.50;6.50;;;;;;;5.94;89.17;98668.80;105647;1258;74637;-26
2023/11/09 01:34:50;;;;;;;11.40;6.30;;;;;;;5.63;90.82;98666.24;105730;1255;72647;-26
2023/11/09 01:37:17;;;;;;;10.10;4.70;;;;;;;5.43;91.83;98667.89;105722;1254;61937;-26
2023/11/09 01:39:44;;;;;;;8.50;5.30;;;;;;;5.86;90.72;98667.24;105521;1259;61850;-26
2023/11/09 01:42:12;;;;;;;9.90;6.40;;;;;;;6.15;88.46;98670.35;105739;1254;73808;-27
2023/11/09 01:44:39;;;;;;;6.80;5.50;;;;;;;6.03;88.08;98675.08;105733;1259;74215;-26
2023/11/09 01:47:06;;;;;;;13.30;7.30;;;;;;;5.71;89.54;98674.77;105841;1254;73189;-26
2023/11/09 01:49:35;;;;;;;14.10;6.70;;;;;;;5.42;91.06;98680.84;105701;1254;61068;-26
2023/11/09 01:52:03;;;;;;;10.70;6.40;;;;;;;5.18;92.60;98684.98;105910;1257;61158;-26
2023/11/09 01:54:31;;;;;;;11.30;6.50;;;;;;;5.46;92.08;98686.12;105676;1254;73898;-27
2023/11/09 01:56:58;;;;;;;8.30;5.50;;;;;;;5.74;90.15;98688.88;105846;1254;74271;-26
2023/11/09 01:59:25;;;;;;;10.40;6.90;;;;;;;5.70;89.64;98687.13;105648;1254;72636;-26
2023/11/09 02:01:52;;;;;;;11.40;6.50;;;;;;;5.44;90.91;98692.79;105498;1254;61223;-26
2023/11/09 02:04:19;;;;;;;8.60;6.00;;;;;;;5.18;91.98;98698.24;105559;1260;61192;-26
2023/11/09 02:06:47;;;;;;;10.50;5.80;;;;;;;5.11;93.21;98701.48;105649;1254;74387;-27
2023/11/09 02:09:14;;;;;;;11.60;5.90;;;;;;;5.56;91.39;98703.73;105676;1256;74488;-27
2023/11/09 02:11:41;;;;;;;11.40;6.30;;;;;;;5.75;89.88;98702.27;105537;1254;72688;-26
2023/11/09 02:14:09;;;;;;;7.10;5.20;;;;;;;5.61;90.11;98704.09;105646;1261;61279;-26
2023/11/09 02:16:36;;;;;;;10.80;6.20;;;;;;;5.42;91.03;98705.10;105652;1259;61179;-27
2023/11/09 02:19:03;;;;;;;12.00;6.20;;;;;;;5.25;91.95;98706.94;105678;1254;73852;-26
2023/11/09 02:21:30;;;;;;;6.70;4.70;;;;;;;5.24;92.80;98708.73;105836;1254;74454;-27
2023/11/09 02:23:57;;;;;;;6.80;4.80;;;;;;;5.75;90.86;98709.19;105651;1254;72160;-27
2023/11/09 02:26:24;;;;;;;9.00;5.90;;;;;;;5.87;89.35;98705.77;105667;1254;61001;-26
2023/11/09 02:28:54;;;;;;;7.60;5.10;;;;;;;5.79;89.48;98705.30;105818;1253;61122;-26
2023/11/09 02:31:22;;;;;;;13.00;6.20;;;;;;;5.63;90.18;98698.94;105864;1254;72776;-26
2023/11/09 02:33:49;;;;;;;8.30;5.50;;;;;;;5.43;91.41;98699.77;105634;1254;74342;-26
2023/11/09 02:36:17;;;;;;;9.20;5.90;;;;;;;5.28;92.78;98702.58;105643;1254;72668;-27
2023/11/09 02:38:44;;;;;;;6.40;4.80;;;;;;;5.65;92.41;98700.88;105672;1259;61109;-27
2023/11/09 02:41:11;;;;;;;9.80;5.60;;;;;;;6.11;89.31;98701.77;105837;1260;61094;-26
2023/11/09 02:43:42;;;;;;;8.40;5.50;;;;;;;6.14;88.82;98702.31;105840;1254;73810;-26
2023/11/09 02:46:11;;;;;;;8.20;6.30;;;;;;;5.99;89.17;98703.65;105883;1259;74336;-26
2023/11/09 02:48:40;;;;;;;10.10;5.70;;;;;;;5.73;90.37;98705.15;105749;1254;72430;-27
2023/11/09 02:51:07;;;;;;;11.10;5.20;;;;;;;5.51;92.21;98709.06;105654;1254;61064;-26
2023/11/09 02:53:36;;;;;;;9.40;4.80;;;;;;;5.89;91.10;98708.60;105861;1260;61154;-26
2023/11/09 02:56:05;;;;;;;7.60;5.40;;;;;;;6.15;89.13;98713.09;105740;1259;72507;-26
2023/11/09 02:58:36;;;;;;;7.10;4.80;;;;;;;6.11;88.91;98710.08;105731;1259;74418;-26
2023/11/09 03:01:03;;;;;;;9.20;6.20;;;;;;;5.92;89.70;98719.58;105688;1254;72171;-27
2023/11/09 03:03:30;;;;;;;9.20;5.50;;;;;;;5.71;91.07;98717.71;105691;1254;61180;-26
2023/11/09 03:05:57;;;;;;;13.10;5.50;;;;;;;5.55;92.13;98718.58;105550;1255;61147;-26
2023/11/09 03:08:26;;;;;;;9.70;5.50;;;;;;;5.97;90.83;98719.75;105577;1254;73760;-26
2023/11/09 03:10:54;;;;;;;10.60;5.50;;;;;;;6.17;89.00;98724.30;105687;1259;74202;-26
2023/11/09 03:13:21;;;;;;;8.80;5.30;;;;;;;6.15;88.67;98725.35;105547;1254;72975;-27
2023/11/09 03:15:48;;;;;;;7.30;5.00;;;;;;;5.99;89.43;98729.95;105628;1254;61130;-27
2023/11/09 03:18:15;;;;;;;8.20;5.00;;;;;;;5.74;90.69;98730.09;105665;1259;61167;-26
2023/11/09 03:20:43;;;;;;;8.70;4.50;;;;;;;5.83;91.13;98733.81;105652;1258;73822;-27
2023/11/09 03:23:10;;;;;;;9.60;5.70;;;;;;;6.21;88.98;98733.88;105660;1260;74132;-27
2023/11/09 03:25:38;;;;;;;8.60;4.80;;;;;;;6.20;88.35;98736.34;105773;1254;72898;-26
2023/11/09 03:28:05;;;;;;;6.10;4.80;;;;;;;6.04;89.06;98738.42;105549;1254;62689;-26
2023/11/09 03:30:35;;;;;;;11.10;6.00;;;;;;;5.84;90.29;98735.65;105645;1264;61143;-26
2023/11/09 03:33:02;;;;;;;7.10;4.40;;;;;;;5.64;91.37;98734.20;105775;1260;73829;-26
2023/11/09 03:35:30;;;;;;;7.90;4.90;;;;;;;6.00;90.38;98735.92;105669;1257;74339;-26
2023/11/09 03:37:57;;;;;;;7.10;4.90;;;;;;;6.26;88.31;98736.43;105571;1260;71932;-26
2023/11/09 03:40:24;;;;;;;7.40;4.80;;;;;;;6.21;87.97;98737.33;105725;1254;61171;-26
2023/11/09 03:42:52;;;;;;;10.20;6.30;;;;;;;6.01;88.99;98735.72;105764;1258;61146;-27
2023/11/09 03:45:19;;;;;;;7.50;4.50;;;;;;;5.77;90.36;98738.66;105712;1256;74010;-26
2023/11/09 03:47:46;;;;;;;8.40;4.70;;;;;;;5.62;91.87;98739.51;105656;1259;74407;-27
2023/11/09 03:50:13;;;;;;;8.10;5.00;;;;;;;6.07;90.19;98743.21;105694;1257;72625;-26
2023/11/09 03:52:40;;;;;;;7.10;4.80;;;;;;;6.38;88.04;98738.59;105707;1259;61045;-27
2023/11/09 03:55:10;;;;;;;6.60;4.50;;;;;;;6.30;87.72;98739.34;105842;1257;61170;-26
2023/11/09 03:57:38;;;;;;;11.30;5.30;;;;;;;6.09;88.55;98740.19;105699;1259;73691;-26
2023/11/09 04:00:11;;;;;;;8.40;5.70;;;;;;;5.85;89.82;98741.05;105640;1260;74349;-26
2023/11/09 04:02:42;;;;;;;8.40;4.50;;;;;;;5.70;91.05;98741.71;105677;1260;72661;-26
2023/11/09 04:05:11;;;;;;;9.20;4.70;;;;;;;6.14;89.68;98746.41;105564;1254;61212;-26
2023/11/09 04:07:41;;;;;;;7.00;5.00;;;;;;;6.45;87.55;98744.50;105554;1258;61147;-26
2023/11/09 04:10:09;;;;;;;10.70;5.10;;;;;;;6.41;87.22;98743.38;105693;1258;72741;-27
2023/11/09 04:12:36;;;;;;;8.20;5.00;;;;;;;6.25;87.75;98752.20;105669;1259;74296;-27
2023/11/09 04:15:04;;;;;;;15.10;6.00;;;;;;;6.01;89.01;98755.16;105549;1262;71228;-26
2023/11/09 04:17:32;;;;;;;10.80;4.80;;;;;;;5.81;90.44;98753.75;105869;1260;61109;-26
2023/11/09 04:19:59;;;;;;;7.60;5.00;;;;;;;6.19;89.86;98755.39;105743;1260;61017;-26
2023/11/09 04:22:26;;;;;;;5.70;3.90;;;;;;;6.57;87.28;98756.41;105881;1260;73631;-26
2023/11/09 04:24:53;;;;;;;13.70;5.10;;;;;;;6.58;86.53;98754.13;105823;1254;74124;-26
2023/11/09 04:27:21;;;;;;;9.00;4.70;;;;;;;6.40;86.91;98752.43;105842;1254;73028;-26
2023/11/09 04:29:49;;;;;;;10.50;5.70;;;;;;;6.15;88.09;98756.82;105851;1254;61190;-26
2023/11/09 04:32:18;;;;;;;8.30;5.90;;;;;;;5.96;89.32;98760.34;105644;1260;61243;-26
2023/11/09 04:34:46;;;;;;;8.30;4.70;;;;;;;5.85;90.49;98763.46;105699;1259;74942;-26
2023/11/09 04:37:13;;;;;;;7.10;4.10;;;;;;;6.36;88.71;98765.27;105657;1260;74333;-26
2023/11/09 04:39:46;;;;;;;9.10;4.20;;;;;;;6.68;86.80;98768.20;105711;1260;72639;-26
2023/11/09 04:42:19;;;;;;;7.20;4.60;;;;;;;6.57;86.64;98766.44;105630;1259;61180;-26
2023/11/09 04:44:46;;;;;;;7.60;5.00;;;;;;;6.36;87.28;98772.86;105702;1261;61145;-26
2023/11/09 04:47:14;;;;;;;9.10;5.20;;;;;;;6.10;88.40;98774.28;103283;1266;3484921;-26
2023/11/09 04:49:49;;;;;;;8.50;4.10;;;;;;;5.89;89.87;98774.27;105650;1259;61178;-26
2023/11/09 04:52:19;;;;;;;9.20;5.00;;;;;;;6.24;89.46;98777.64;105832;1259;73217;-26
2023/11/09 04:54:56;;;;;;;9.50;5.20;;;;;;;6.60;87.30;98776.36;105677;1260;61253;-26
2023/11/09 05:08:36;;;;;;;11.00;4.70;;;;;;;6.34;89.19;98792.30;105668;1254;61137;-26
2023/11/09 05:11:31;;;;;;;7.80;4.90;;;;;;;6.52;87.61;98789.34;102928;1289;600291;-26
2023/11/09 05:13:59;;;;;;;9.20;5.60;;;;;;;6.40;87.71;98793.44;104792;1273;61171;-25
2023/11/09 05:16:30;;;;;;;9.10;5.10;;;;;;;6.21;88.77;98793.70;104799;1266;61813;-25
2023/11/09 05:18:58;;;;;;;7.90;4.50;;;;;;;5.99;89.93;98795.48;104833;1271;70098;-26
2023/11/09 05:21:26;;;;;;;5.90;3.50;;;;;;;5.95;90.84;98800.35;104783;1272;74413;-26
2023/11/09 05:31:37;;;;;;;8.70;5.00;;;;;;;6.28;88.49;98805.46;102722;1294;599928;-25
2023/11/09 05:34:05;;;;;;;6.90;4.40;;;;;;;6.03;89.82;98810.34;104845;1272;61177;-25
2023/11/09 05:44:22;;;;;;;5.70;4.30;;;;;;;6.65;87.02;98821.44;102602;1293;600164;-25
2023/11/09 05:46:50;;;;;;;7.60;4.40;;;;;;;6.46;87.94;98830.67;104866;1270;61906;-25
2023/11/09 05:56:54;;;;;;;6.40;3.80;;;;;;;6.83;86.99;98845.36;102671;1296;600011;-25
2023/11/09 06:07:08;;;;;;;5.90;3.50;;;;;;;6.15;90.61;98853.22;102631;1293;600119;-26
2023/11/09 06:16:56;;;;;;;6.40;3.90;;;;;;;6.56;88.28;98857.50;102466;1294;615304;-27
2023/11/09 06:19:23;;;;;;;10.00;5.20;;;;;;;6.30;89.29;98857.36;104905;1270;61068;-27
2023/11/09 06:21:52;;;;;;;9.30;4.40;;;;;;;6.13;90.94;98867.64;104905;1269;61145;-27
2023/11/09 06:24:19;;;;;;;9.30;4.60;;;;;;;6.55;89.54;98861.05;104821;1266;72101;-27
2023/11/09 06:26:46;;;;;;;7.40;4.90;;;;;;;6.86;87.57;98859.46;104880;1267;74087;-27
2023/11/09 06:29:13;;;;;;;9.50;4.50;;;;;;;6.83;87.38;98863.84;102408;1267;3409392;-27
2023/11/09 06:31:42;;;;;;;7.60;5.10;;;;;;;6.60;88.28;98869.52;105064;1266;61130;-27
2023/11/09 06:34:18;;;;;;;10.20;5.30;;;;;;;6.42;89.45;98872.98;104727;1269;61219;-27
2023/11/09 06:36:45;;;;;;;6.10;4.30;;;;;;;6.31;90.45;98875.94;104895;1266;72193;-27
2023/11/09 06:39:22;;;;;;;9.20;4.50;;;;;;;6.65;89.41;98876.95;104875;1270;74406;-27
2023/11/09 06:41:49;;;;;;;7.20;4.80;;;;;;;7.05;87.19;98875.27;105124;1265;72778;-27
2023/11/09 06:44:16;;;;;;;8.30;4.90;;;;;;;6.98;87.20;98878.70;105004;1264;61007;-27
2023/11/09 06:46:44;;;;;;;7.90;5.10;;;;;;;6.81;88.02;98876.03;105108;1264;61225;-27
2023/11/09 06:49:11;;;;;;;6.70;4.90;;;;;;;6.64;88.98;98880.81;104841;1263;72968;-27
2023/11/09 06:51:38;;;;;;;5.10;4.00;;;;;;;6.45;90.30;98887.23;105082;1265;74254;-27
2023/11/09 06:54:05;;;;;;;7.50;4.10;;;;;;;6.73;89.42;98884.02;104844;1265;72569;-27
2023/11/09 06:56:34;;;;;;;5.60;4.20;;;;;;;7.12;87.60;98891.36;105010;1266;61066;-27
2023/11/09 06:59:03;;;;;;;9.20;5.50;;;;;;;7.08;87.18;98886.48;105079;1268;61193;-27
2023/11/09 07:01:34;;;;;;;6.50;4.90;;;;;;;6.93;88.03;98889.01;105039;1266;72832;-27
2023/11/09 07:04:02;;;;;;;8.60;5.30;;;;;;;6.72;89.02;98893.25;104836;1265;74158;-27
2023/11/09 07:06:29;;;;;;;6.00;4.30;;;;;;;6.52;90.38;98894.22;104895;1266;72679;-27
2023/11/09 07:08:56;;;;;;;6.10;4.40;;;;;;;6.91;89.55;98891.59;105290;1257;61132;-27
2023/11/09 07:11:23;;;;;;;8.10;4.60;;;;;;;7.15;87.65;98895.27;105215;1262;61198;-27
2023/11/09 07:13:50;;;;;;;8.30;5.10;;;;;;;7.16;87.07;98898.65;105452;1257;72987;-27
2023/11/09 07:16:18;;;;;;;11.40;6.10;;;;;;;7.08;87.70;98901.85;105502;1257;74811;-27
2023/11/09 07:18:46;;;;;;;10.00;4.90;;;;;;;6.83;89.14;98900.22;105510;1257;72450;-26
2023/11/09 07:21:13;;;;;;;6.30;3.90;;;;;;;6.67;89.49;98900.59;105541;1258;61881;-26
2023/11/09 07:23:40;;;;;;;8.10;4.90;;;;;;;7.11;89.18;98917.84;105575;1257;61285;-26
2023/11/09 07:26:07;;;;;;;8.30;4.90;;;;;;;7.45;86.74;98912.22;105492;1257;72481;-27
2023/11/09 07:28:34;;;;;;;11.30;5.30;;;;;;;7.34;86.54;98913.13;105393;1257;74311;-27
2023/11/09 07:31:01;;;;;;;7.60;5.70;;;;;;;7.09;87.66;98913.84;105687;1254;73323;-26
2023/11/09 07:33:29;;;;;;;6.60;4.80;;;;;;;6.83;89.04;98914.56;105693;1255;61065;-26
2023/11/09 07:35:57;;;;;;;7.30;4.60;;;;;;;6.93;89.89;98916.11;105652;1256;61145;-26
2023/11/09 07:38:26;;;;;;;7.80;5.00;;;;;;;7.40;87.46;98914.98;105683;1256;73214;-27
2023/11/09 07:40:53;;;;;;;7.50;5.20;;;;;;;7.57;85.86;98912.02;105607;1253;74209;-27
2023/11/09 07:43:21;;;;;;;8.10;5.40;;;;;;;7.54;86.22;98915.93;105619;1253;72523;-26
2023/11/09 07:45:48;;;;;;;8.70;5.40;;;;;;;7.45;87.37;98916.39;105683;1253;61083;-26
2023/11/09 07:48:16;;;;;;;6.30;4.80;;;;;;;7.28;87.58;98916.33;105692;1257;61132;-26
2023/11/09 07:50:43;;;;;;;13.50;5.10;;;;;;;7.31;88.29;98921.15;105620;1255;73613;-26
2023/11/09 07:53:11;;;;;;;7.80;4.90;;;;;;;7.68;85.95;98923.38;105523;1253;74218;-27
2023/11/09 07:55:38;;;;;;;9.00;5.70;;;;;;;7.81;85.71;98928.36;105605;1253;72653;-26
2023/11/09 07:58:05;;;;;;;8.20;5.40;;;;;;;7.78;85.78;98930.48;105700;1253;61109;-26
2023/11/09 08:00:33;;;;;;;8.30;6.00;;;;;;;7.51;85.98;98925.09;105692;1254;61105;-26
2023/11/09 08:03:01;;;;;;;5.70;4.40;;;;;;;7.30;88.21;98935.52;105685;1254;72929;-26
2023/11/09 08:05:29;;;;;;;8.90;5.90;;;;;;;7.66;87.73;98939.02;105722;1259;73436;-24
2023/11/09 08:07:56;;;;;;;6.60;5.20;;;;;;;8.00;85.28;98940.67;105683;1253;72617;-26
2023/11/09 08:10:24;;;;;;;10.40;5.70;;;;;;;7.95;84.66;98939.97;105686;1253;61058;-26
2023/11/09 08:12:52;;;;;;;11.00;6.50;;;;;;;7.73;85.93;98940.27;105699;1257;61110;-26
2023/11/09 08:15:20;;;;;;;11.30;6.60;;;;;;;7.63;86.84;98945.14;105750;1256;72978;-26
2023/11/09 08:17:47;;;;;;;8.30;6.10;;;;;;;7.59;87.46;98941.31;105677;1257;74273;-26
2023/11/09 08:20:14;;;;;;;8.50;5.90;;;;;;;7.82;85.99;98944.86;105591;1253;72609;-26
2023/11/09 08:22:47;;;;;;;11.70;6.40;;;;;;;7.96;85.36;98947.66;105607;1254;61130;-26
2023/11/09 08:25:14;;;;;;;10.00;6.40;;;;;;;7.79;85.91;98946.30;105573;1260;61129;-26
2023/11/09 08:27:42;;;;;;;8.10;6.30;;;;;;;7.64;86.90;98943.05;105679;1258;70732;-26
2023/11/09 08:30:09;;;;;;;12.00;6.80;;;;;;;7.27;88.66;98942.80;105706;1257;74768;-26
2023/11/09 08:32:38;;;;;;;10.00;7.10;;;;;;;7.33;88.64;98939.64;105672;1253;71434;-26
2023/11/09 08:35:10;;;;;;;8.00;5.30;;;;;;;7.79;86.98;98948.14;105653;1254;61115;-26
2023/11/09 08:37:38;;;;;;;7.80;6.00;;;;;;;8.19;86.02;98951.34;105703;1253;61054;-26
2023/11/09 08:40:18;;;;;;;12.90;6.20;;;;;;;8.14;85.70;98950.22;105653;1253;72867;-26
2023/11/09 08:42:48;;;;;;;9.30;5.30;;;;;;;7.95;86.83;98953.30;105724;1253;74753;-26
2023/11/09 08:45:18;;;;;;;8.40;5.60;;;;;;;7.83;86.78;98955.30;105677;1254;72345;-26
2023/11/09 08:47:46;;;;;;;7.00;5.60;;;;;;;8.26;85.69;98958.48;105648;1253;61128;-26
2023/11/09 08:50:13;;;;;;;9.60;5.60;;;;;;;8.52;84.07;98954.88;105658;1254;61523;-26
2023/11/09 08:52:40;;;;;;;7.90;5.80;;;;;;;8.58;84.72;98963.09;105675;1253;72979;-26
2023/11/09 08:55:08;;;;;;;9.00;6.40;;;;;;;8.33;85.20;98957.81;105683;1259;75651;-26
2023/11/09 08:57:37;;;;;;;12.00;5.80;;;;;;;8.15;85.49;98958.06;105700;1253;72521;-26
2023/11/09 09:00:06;;;;;;;10.20;5.00;;;;;;;8.16;85.63;98952.10;105646;1253;62367;-26
2023/11/09 09:02:34;;;;;;;7.90;5.50;;;;;;;8.57;84.14;98950.13;105587;1261;61171;-26
2023/11/09 09:05:01;;;;;;;8.10;5.90;;;;;;;8.83;82.54;98949.50;105709;1254;73053;-26
2023/11/09 09:07:29;;;;;;;9.10;5.90;;;;;;;8.84;81.78;98957.86;105668;1254;75313;-26
2023/11/09 09:09:58;;;;;;;7.80;6.10;;;;;;;8.76;83.03;98957.99;105686;1254;72873;-26
2023/11/09 09:12:25;;;;;;;9.60;6.20;;;;;;;8.52;84.04;98959.55;105664;1254;61054;-25
2023/11/09 09:14:53;;;;;;;7.00;4.80;;;;;;;8.46;83.68;98958.55;105703;1257;61148;-26
2023/11/09 09:17:20;;;;;;;8.30;4.50;;;;;;;8.66;83.06;98960.43;105679;1253;72827;-26
2023/11/09 09:19:47;;;;;;;7.40;5.60;;;;;;;8.90;81.62;98960.91;105660;1253;74278;-26
2023/11/09 09:22:14;;;;;;;7.00;4.60;;;;;;;8.80;81.01;98961.83;105667;1254;72730;-26
2023/11/09 09:24:41;;;;;;;9.20;5.20;;;;;;;8.64;82.14;98967.47;105731;1253;61111;-26
2023/11/09 09:27:09;;;;;;;7.70;4.90;;;;;;;8.19;83.00;98966.02;105695;1257;61166;-26
2023/11/09 09:29:37;;;;;;;6.60;5.50;;;;;;;8.21;83.53;98968.21;105700;1255;72824;-26
2023/11/09 09:32:05;;;;;;;5.40;3.80;;;;;;;8.05;84.02;98971.00;105676;1253;74835;-26
2023/11/09 09:34:34;;;;;;;8.00;4.40;;;;;;;8.54;83.23;98972.58;105669;1253;71369;-26
2023/11/09 09:37:02;;;;;;;6.20;4.90;;;;;;;8.65;81.76;98971.36;105661;1253;61110;-27
2023/11/09 09:39:29;;;;;;;7.90;5.50;;;;;;;8.68;82.81;98974.09;105688;1253;61404;-26
2023/11/09 09:41:58;;;;;;;7.30;5.40;;;;;;;8.64;82.08;98969.55;105671;1253;72945;-26
2023/11/09 09:44:26;;;;;;;12.00;6.20;;;;;;;8.40;82.18;98968.69;105715;1253;73661;-26
2023/11/09 09:46:55;;;;;;;6.70;5.20;;;;;;;8.13;84.34;98972.73;105686;1253;71466;-25
2023/11/09 09:49:25;;;;;;;7.30;5.20;;;;;;;8.53;83.92;98971.96;105614;1253;61184;-26
2023/11/09 09:51:55;;;;;;;6.80;5.20;;;;;;;8.79;81.08;98976.94;105617;1258;61175;-26
2023/11/09 09:54:23;;;;;;;7.90;5.10;;;;;;;8.74;81.26;98975.92;105682;1253;72864;-26
2023/11/09 09:56:50;;;;;;;6.70;4.80;;;;;;;8.53;81.64;98969.36;105719;1258;74491;-25
2023/11/09 09:59:20;;;;;;;9.40;5.60;;;;;;;8.38;81.94;98973.48;105663;1253;72804;-26
2023/11/09 10:01:51;;;;;;;10.10;5.60;;;;;;;8.12;82.64;98972.15;105660;1253;61061;-26
2023/11/09 10:04:18;;;;;;;11.30;4.50;;;;;;;8.23;84.24;98978.89;105660;1254;61158;-26
2023/11/09 10:06:46;;;;;;;6.90;5.20;;;;;;;8.70;81.63;98974.15;105668;1260;72887;-26
2023/11/09 10:09:14;;;;;;;8.50;5.20;;;;;;;8.84;81.13;98975.02;105741;1257;74339;-26
2023/11/09 10:11:42;;;;;;;5.80;4.80;;;;;;;8.83;81.56;98975.79;105772;1253;72649;-26
2023/11/09 10:14:15;;;;;;;7.70;5.50;;;;;;;8.70;80.62;98967.56;105737;1254;61150;-26
2023/11/09 10:16:42;;;;;;;6.80;5.10;;;;;;;8.59;81.79;98977.91;105671;1251;61132;-26
2023/11/09 10:19:10;;;;;;;6.40;4.30;;;;;;;8.54;82.62;98978.41;105848;1251;72159;-26
2023/11/09 10:21:41;;;;;;;9.10;4.60;;;;;;;9.04;80.63;98977.60;105853;1251;73918;-26
2023/11/09 10:24:13;;;;;;;6.70;4.40;;;;;;;9.40;77.71;98969.41;105788;1253;73026;-26
2023/11/09 10:26:42;;;;;;;10.70;4.90;;;;;;;9.39;77.78;98972.90;105472;1253;60999;-26
2023/11/09 10:29:19;;;;;;;7.10;5.10;;;;;;;9.19;78.77;98976.89;105527;1259;61708;-27
2023/11/09 10:31:46;;;;;;;8.40;4.80;;;;;;;8.98;79.39;98979.80;105666;1253;75409;-26
2023/11/09 10:34:15;;;;;;;7.70;4.80;;;;;;;8.86;79.25;98980.39;105582;1251;74745;-26
2023/11/09 10:36:44;;;;;;;8.80;5.70;;;;;;;8.69;79.41;98977.34;105810;1251;71460;-25
2023/11/09 10:39:22;;;;;;;7.60;4.10;;;;;;;8.69;81.44;98978.06;105555;1251;61738;-26
2023/11/09 10:41:52;;;;;;;7.20;4.50;;;;;;;9.26;79.36;98974.45;105757;1257;61163;-26
2023/11/09 10:44:28;;;;;;;7.50;4.60;;;;;;;9.56;77.89;98977.49;105610;1251;73146;-26
2023/11/09 10:46:55;;;;;;;6.50;4.70;;;;;;;9.38;75.50;98972.45;105543;1251;74231;-26
2023/11/09 10:49:26;;;;;;;7.00;3.90;;;;;;;9.04;77.18;98975.23;105634;1254;73862;-26
2023/11/09 10:51:56;;;;;;;5.60;4.20;;;;;;;9.02;77.67;98975.58;105542;1259;61173;-26
2023/11/09 10:54:24;;;;;;;4.40;3.60;;;;;;;8.95;76.68;98973.16;105661;1256;61209;-26
2023/11/09 10:56:55;;;;;;;5.70;3.80;;;;;;;8.93;76.99;98979.33;105846;1251;73899;-26
2023/11/09 10:59:23;;;;;;;5.70;4.70;;;;;;;8.82;77.43;98979.66;105636;1251;72346;-26
2023/11/09 11:01:55;;;;;;;4.70;3.50;;;;;;;8.78;77.60;98980.98;105764;1251;71391;-26
2023/11/09 11:04:25;;;;;;;6.70;3.70;;;;;;;9.10;76.69;98983.45;105710;1251;61011;-26
2023/11/09 11:06:56;;;;;;;5.80;3.80;;;;;;;9.22;76.00;98985.84;105730;1251;61249;-26
2023/11/09 11:09:26;;;;;;;7.70;4.50;;;;;;;9.30;75.47;98983.64;105789;1257;73256;-26
2023/11/09 11:12:01;;;;;;;7.30;4.70;;;;;;;9.19;75.52;98982.40;105912;1251;74448;-25
2023/11/09 11:14:31;;;;;;;6.30;5.10;;;;;;;9.16;75.75;98983.02;105830;1251;72284;-25
2023/11/09 11:17:24;;;;;;;8.00;4.30;;;;;;;9.32;77.22;98983.69;105902;1255;61161;-25
2023/11/09 11:20:12;;;;;;;7.00;4.70;;;;;;;9.61;76.60;98977.60;105778;1259;62810;-25
2023/11/09 11:22:51;;;;;;;5.70;3.40;;;;;;;9.84;74.79;98976.01;105658;1251;73714;-25
2023/11/09 11:25:35;;;;;;;7.10;4.20;;;;;;;10.32;73.04;98976.89;105503;1251;73864;-25
2023/11/09 11:28:06;;;;;;;3.90;3.00;;;;;;;10.21;71.97;98975.34;105564;1251;72329;-26
2023/11/09 11:30:37;;;;;;;6.50;4.60;;;;;;;10.20;72.05;98974.89;105623;1251;61090;-25
2023/11/09 11:33:12;;;;;;;6.10;4.00;;;;;;;9.94;72.85;98979.67;105697;1251;61166;-25
2023/11/09 11:35:40;;;;;;;6.70;4.00;;;;;;;9.57;74.10;98978.46;105689;1257;72801;-25
2023/11/09 11:38:21;;;;;;;7.60;4.00;;;;;;;9.38;75.56;98982.35;105960;1256;75382;-26
2023/11/09 11:40:52;;;;;;;7.30;3.80;;;;;;;9.13;76.68;98986.34;105668;1251;72619;-26
2023/11/09 11:43:20;;;;;;;5.20;4.20;;;;;;;9.14;75.52;98982.78;105477;1251;61087;-25
2023/11/09 11:45:48;;;;;;;4.70;3.30;;;;;;;9.17;75.30;98982.23;105693;1259;61695;-25
2023/11/09 11:48:22;;;;;;;4.00;2.70;;;;;;;9.58;75.12;98982.39;105615;1256;74206;-27
2023/11/09 11:50:50;;;;;;;7.00;3.80;;;;;;;9.99;72.64;98984.84;105389;1251;74891;-25
2023/11/09 11:53:30;;;;;;;7.10;3.70;;;;;;;10.15;72.55;98987.77;105577;1254;72968;-25
2023/11/09 11:55:58;;;;;;;5.10;3.00;;;;;;;10.00;72.33;98986.52;105561;1259;61137;-25
2023/11/09 11:58:27;;;;;;;5.90;3.50;;;;;;;9.77;72.42;98990.73;105618;1259;61728;-25
2023/11/09 12:00:55;;;;;;;5.10;3.40;;;;;;;9.57;72.76;98988.65;105620;1251;72825;-26
2023/11/09 12:03:25;;;;;;;3.80;2.80;;;;;;;9.34;74.16;98986.45;105851;1251;75809;-25
2023/11/09 12:05:59;;;;;;;4.90;3.50;;;;;;;9.22;73.86;98984.48;105939;1251;73370;-25
2023/11/09 12:08:34;;;;;;;4.30;3.20;;;;;;;9.11;74.44;98984.91;105721;1251;62387;-25
2023/11/09 12:11:02;;;;;;;7.10;3.30;;;;;;;9.45;73.44;98982.19;105745;1257;61256;-25
2023/11/09 12:13:35;;;;;;;4.30;2.90;;;;;;;9.97;71.37;98978.96;105926;1251;74773;-26
2023/11/09 12:16:03;;;;;;;4.10;2.90;;;;;;;10.19;69.85;98979.64;105712;1259;74988;-25
2023/11/09 12:18:30;;;;;;;4.20;3.10;;;;;;;10.17;70.69;98979.33;105793;1251;71688;-25
2023/11/09 12:20:57;;;;;;;7.00;3.50;;;;;;;9.88;70.93;98972.37;105744;1251;61137;-25
2023/11/09 12:23:24;;;;;;;4.40;3.20;;;;;;;9.66;71.23;98977.41;105694;1257;61503;-25
2023/11/09 12:25:52;;;;;;;5.00;3.70;;;;;;;9.45;71.84;98977.84;105711;1251;73904;-25
2023/11/09 12:28:21;;;;;;;5.20;2.90;;;;;;;9.30;73.58;98981.20;105767;1251;74112;-25